Freemans Mills, North Carolina
Current Conditions -  °F | °C
As of 4:54 AM on Wednesday 26 Nov 2014 (Local Time) from KINT Reporting Station
Light Rain Light Rain  
Wind Chill: 36°   Ceiling: 7000
Heat Index: 43°   Visibility: 9mi
Dew Point: 40°   Wind: 14mph
Humidity: 89%   Direction: 30°NNE
Pressure: 29.93"   Gusts: NA
Location:  35.9808°N, 80.1272°W
Report Text: KINT 260954Z 03012KT 9SM -RA OVC070 06/04 A2993 RMK AO2 PRESFR SLP135 P0007 T00610044
Loading
Personal Weather Stations






























Interactive Weather Map New forecast layout! Learn more

10-Day Weather Forecast

Advertisements
Track Severe Weather on mobile